Time;durP1;ratioP1;P1;durP2;ratioP2;P2;SDS_P1;SDS_P2;PMS_P1;PMS_P2;Temp;Humidity;BMP_temperature;BMP_pressure;BME280_temperature;BME280_humidity;BME280_pressure;Samples;Min_cycle;Max_cycle;Signal;HPM_P1;HPM_P2
2020/12/11 00:01:59;;;;;;;;;;;0.30;99.90;;;;;;5076168;28;19924;-83
2020/12/11 00:04:27;;;;;;;;;;;0.30;99.90;;;;;;5094639;28;20318;-82
2020/12/11 00:06:55;;;;;;;;;;;0.20;99.90;;;;;;5094143;28;19912;-83
2020/12/11 00:09:28;;;;;;;;;;;0.20;99.90;;;;;;5075357;28;19991;-83
2020/12/11 00:12:02;;;;;;;;;;;0.10;99.90;;;;;;5094545;28;19916;-83
2020/12/11 00:14:29;;;;;;;;;;;0.20;99.90;;;;;;5094380;28;20311;-83
2020/12/11 00:16:56;;;;;;;;;;;0.10;99.90;;;;;;5094094;28;20381;-82
2020/12/11 00:19:21;;;;;;;;;;;0.10;99.90;;;;;;5094117;28;19927;-82
2020/12/11 00:21:58;;;;;;;;;;;0.10;99.90;;;;;;5072197;28;19920;-82
2020/12/11 00:24:24;;;;;;;;;;;0.10;99.90;;;;;;5073939;28;20381;-81
2020/12/11 00:26:54;;;;;;;;;;;0.20;99.90;;;;;;5074180;28;19908;-82
2020/12/11 00:29:34;;;;;;;;;;;0.10;99.90;;;;;;5074002;28;19916;-83
2020/12/11 00:32:04;;;;;;;;;;;0.20;99.90;;;;;;5072812;28;20046;-83
2020/12/11 00:34:38;;;;;;;;;;;0.20;99.90;;;;;;5072428;28;19948;-83
2020/12/11 00:37:10;;;;;;;;;;;0.20;99.90;;;;;;5072518;28;19915;-83
2020/12/11 00:39:40;;;;;;;;;;;0.20;99.90;;;;;;5073895;28;19909;-83
2020/12/11 00:42:09;;;;;;;;;;;0.20;99.90;;;;;;5072773;28;20365;-83
2020/12/11 00:44:45;;;;;;;;;;;0.20;99.90;;;;;;5072467;28;20018;-83
2020/12/11 00:47:16;;;;;;;;;;;0.30;99.90;;;;;;5069978;28;20320;-83
2020/12/11 00:49:51;;;;;;;;;;;0.30;99.90;;;;;;5072655;28;19909;-83
2020/12/11 00:52:26;;;;;;;;;;;0.30;99.90;;;;;;5072307;28;19912;-82
2020/12/11 00:54:55;;;;;;;;;;;0.30;99.90;;;;;;5073777;28;19935;-81
2020/12/11 00:57:21;;;;;;;;;;;0.40;99.90;;;;;;5072059;28;20362;-81
2020/12/11 00:59:50;;;;;;;;;;;0.30;99.90;;;;;;5066691;28;19908;-81
2020/12/11 01:02:18;;;;;;;;;;;0.40;99.90;;;;;;5072456;28;20007;-81
2020/12/11 01:04:57;;;;;;;;;;;0.40;99.90;;;;;;5072860;28;19908;-81
2020/12/11 01:07:23;;;;;;;;;;;0.40;99.90;;;;;;5072428;28;20395;-81
2020/12/11 01:09:51;;;;;;;;;;;0.40;99.90;;;;;;5072898;28;20003;-81
2020/12/11 01:12:27;;;;;;;;;;;0.40;99.90;;;;;;5072092;28;19923;-82
2020/12/11 01:14:58;;;;;;;;;;;0.40;99.90;;;;;;5074117;28;19919;-82
2020/12/11 01:17:27;;;;;;;;;;;0.40;99.90;;;;;;5073111;28;19908;-82
2020/12/11 01:19:55;;;;;;;;;;;0.40;99.90;;;;;;5072261;28;19931;-83
2020/12/11 01:22:27;;;;;;;;;;;0.50;99.90;;;;;;5073326;28;20399;-82
2020/12/11 01:24:53;;;;;;;;;;;0.50;99.90;;;;;;5075610;28;20304;-82
2020/12/11 01:27:19;;;;;;;;;;;0.50;99.90;;;;;;5071286;28;19909;-82
2020/12/11 01:29:49;;;;;;;;;;;0.50;99.90;;;;;;5075528;28;19909;-82
2020/12/11 01:32:15;;;;;;;;;;;0.50;99.90;;;;;;5075149;28;20046;-82
2020/12/11 01:34:52;;;;;;;;;;;0.50;99.90;;;;;;5074891;28;19956;-82
2020/12/11 01:37:21;;;;;;;;;;;0.50;99.90;;;;;;5076426;28;19915;-82
2020/12/11 01:39:49;;;;;;;;;;;0.50;99.90;;;;;;5075538;28;19915;-81
2020/12/11 01:42:17;;;;;;;;;;;0.50;99.90;;;;;;5076056;28;19912;-82
2020/12/11 01:44:50;;;;;;;;;;;0.50;99.90;;;;;;5075160;28;19912;-82
2020/12/11 01:47:23;;;;;;;;;;;0.50;99.90;;;;;;5076493;28;19936;-83
2020/12/11 01:49:49;;;;;;;;;;;0.50;99.90;;;;;;5074949;28;19920;-82
2020/12/11 01:52:20;;;;;;;;;;;0.50;99.90;;;;;;5076099;28;19917;-82
2020/12/11 01:55:06;;;;;;;;;;;0.50;99.90;;;;;;5075853;28;19912;-82
2020/12/11 01:57:31;;;;;;;;;;;0.50;99.90;;;;;;5074976;28;19991;-82
2020/12/11 02:00:04;;;;;;;;;;;0.40;99.90;;;;;;5074422;28;19959;-82
2020/12/11 02:02:35;;;;;;;;;;;0.40;99.90;;;;;;5074499;28;19961;-83
2020/12/11 02:05:01;;;;;;;;;;;0.40;99.90;;;;;;5075335;28;19948;-83
2020/12/11 02:07:26;;;;;;;;;;;0.40;99.90;;;;;;5074604;28;20495;-83
2020/12/11 02:09:55;;;;;;;;;;;0.30;99.90;;;;;;5076217;28;19931;-82
2020/12/11 02:12:23;;;;;;;;;;;0.30;99.90;;;;;;5074710;28;19913;-82
2020/12/11 02:14:48;;;;;;;;;;;0.30;99.90;;;;;;5074636;28;20375;-83
2020/12/11 02:17:26;;;;;;;;;;;0.20;99.90;;;;;;5075881;28;19909;-82
2020/12/11 02:19:55;;;;;;;;;;;0.20;99.90;;;;;;5073633;28;20369;-83
2020/12/11 02:22:25;;;;;;;;;;;0.20;99.90;;;;;;5053566;28;20433;-83
2020/12/11 02:24:51;;;;;;;;;;;0.10;99.90;;;;;;5056590;28;20324;-84
2020/12/11 02:27:17;;;;;;;;;;;0.10;99.90;;;;;;5073705;28;19915;-83
2020/12/11 02:29:46;;;;;;;;;;;0.10;99.90;;;;;;5056980;28;20007;-82
2020/12/11 02:32:14;;;;;;;;;;;0.00;99.90;;;;;;5072924;28;19913;-82
2020/12/11 02:34:43;;;;;;;;;;;0.10;99.90;;;;;;5054237;28;19923;-82
2020/12/11 02:37:12;;;;;;;;;;;0.00;99.90;;;;;;5056470;28;20003;-82
2020/12/11 02:39:38;;;;;;;;;;;0.00;99.90;;;;;;5072824;28;19919;-82
2020/12/11 02:42:05;;;;;;;;;;;0.00;99.90;;;;;;5072804;28;20376;-82
2020/12/11 02:44:33;;;;;;;;;;;0.00;99.90;;;;;;5072915;28;19913;-82
2020/12/11 02:46:59;;;;;;;;;;;0.00;99.90;;;;;;5073108;28;19909;-82
2020/12/11 02:49:34;;;;;;;;;;;0.00;99.90;;;;;;5072910;28;20396;-83
2020/12/11 02:52:05;;;;;;;;;;;0.00;99.90;;;;;;5072822;28;19919;-83
2020/12/11 02:54:33;;;;;;;;;;;-0.10;99.90;;;;;;5073907;28;19915;-82
2020/12/11 02:57:02;;;;;;;;;;;-0.10;99.90;;;;;;5074765;28;19912;-83
2020/12/11 02:59:31;;;;;;;;;;;-0.10;99.90;;;;;;5071045;28;19913;-82
2020/12/11 03:02:00;;;;;;;;;;;-0.10;99.90;;;;;;5073880;28;20002;-83
2020/12/11 03:04:26;;;;;;;;;;;-0.20;99.90;;;;;;5074355;28;20052;-82
2020/12/11 03:06:52;;;;;;;;;;;-0.20;99.90;;;;;;5073552;28;19919;-83
2020/12/11 03:09:24;;;;;;;;;;;-0.10;99.90;;;;;;5073163;28;20354;-83
2020/12/11 03:11:59;;;;;;;;;;;-0.20;99.90;;;;;;5073134;28;19912;-83
2020/12/11 03:14:28;;;;;;;;;;;-0.20;99.90;;;;;;5072257;28;19912;-83
2020/12/11 03:16:59;;;;;;;;;;;-0.20;99.90;;;;;;5073003;28;19912;-83
2020/12/11 03:19:26;;;;;;;;;;;-0.20;99.90;;;;;;5073356;28;19909;-83
2020/12/11 03:21:52;;;;;;;;;;;-0.20;99.90;;;;;;5075672;28;19935;-83
2020/12/11 03:24:18;;;;;;;;;;;-0.20;99.90;;;;;;5076782;28;19942;-83
2020/12/11 03:26:48;;;;;;;;;;;-0.20;99.90;;;;;;5094710;28;19908;-83
2020/12/11 03:29:16;;;;;;;;;;;-0.20;99.90;;;;;;5076351;28;19938;-83
2020/12/11 03:31:45;;;;;;;;;;;-0.30;99.90;;;;;;5076165;28;19965;-83
2020/12/11 03:34:13;;;;;;;;;;;-0.30;99.90;;;;;;5091542;28;19916;-83
2020/12/11 03:36:39;;;;;;;;;;;-0.30;99.90;;;;;;5076601;28;19944;-83
2020/12/11 03:39:04;;;;;;;;;;;-0.40;99.90;;;;;;5073470;28;19995;-83
2020/12/11 03:41:30;;;;;;;;;;;-0.50;99.90;;;;;;5076513;28;19908;-83
2020/12/11 03:43:58;;;;;;;;;;;-0.50;99.90;;;;;;5076067;28;19908;-83
2020/12/11 03:46:24;;;;;;;;;;;-0.50;99.90;;;;;;5076523;28;19962;-83
2020/12/11 03:48:53;;;;;;;;;;;-0.60;99.90;;;;;;5094515;28;19908;-83
2020/12/11 03:51:22;;;;;;;;;;;-0.60;99.90;;;;;;5076724;28;19908;-83
2020/12/11 03:53:50;;;;;;;;;;;-0.60;99.90;;;;;;5078557;28;19916;-83
2020/12/11 03:56:19;;;;;;;;;;;-0.60;99.90;;;;;;5076493;28;19931;-83
2020/12/11 03:58:47;;;;;;;;;;;-0.60;99.90;;;;;;5076151;28;19956;-83
2020/12/11 04:01:15;;;;;;;;;;;-0.60;99.90;;;;;;5072619;28;19919;-83
2020/12/11 04:03:41;;;;;;;;;;;-0.60;99.90;;;;;;5076281;28;19946;-83
2020/12/11 04:06:07;;;;;;;;;;;-0.60;99.90;;;;;;5076451;28;19963;-83
2020/12/11 04:08:41;;;;;;;;;;;-0.60;99.90;;;;;;5076338;28;20008;-83
2020/12/11 04:11:16;;;;;;;;;;;-0.60;99.90;;;;;;5076506;28;19908;-83
2020/12/11 04:13:46;;;;;;;;;;;-0.60;99.90;;;;;;5094321;28;19923;-83
2020/12/11 04:16:19;;;;;;;;;;;-0.60;99.90;;;;;;5071379;28;19931;-83
2020/12/11 04:18:52;;;;;;;;;;;-0.60;99.90;;;;;;5076163;28;20366;-83
2020/12/11 04:21:21;;;;;;;;;;;-0.60;99.90;;;;;;5075857;28;19953;-83
2020/12/11 04:23:48;;;;;;;;;;;-0.60;99.90;;;;;;5093504;28;19926;-83
2020/12/11 04:26:16;;;;;;;;;;;-0.60;99.90;;;;;;5094572;28;19915;-82
2020/12/11 04:28:43;;;;;;;;;;;-0.60;99.90;;;;;;5094092;28;19908;-82
2020/12/11 04:31:16;;;;;;;;;;;-0.60;99.90;;;;;;5075904;28;20388;-82
2020/12/11 04:33:42;;;;;;;;;;;-0.60;99.90;;;;;;5094069;28;19924;-82
2020/12/11 04:36:15;;;;;;;;;;;-0.60;99.90;;;;;;5072838;28;19912;-83
2020/12/11 04:38:41;;;;;;;;;;;-0.50;99.90;;;;;;5075609;28;19908;-82
2020/12/11 04:41:12;;;;;;;;;;;-0.50;99.90;;;;;;5093778;28;20364;-81
2020/12/11 04:43:37;;;;;;;;;;;-0.40;99.90;;;;;;5075752;28;19909;-82
2020/12/11 04:46:05;;;;;;;;;;;-0.30;99.90;;;;;;5075763;28;19962;-82
2020/12/11 04:48:32;;;;;;;;;;;-0.30;99.90;;;;;;5014878;28;19914;-82
2020/12/11 04:51:00;;;;;;;;;;;-0.20;99.90;;;;;;5031425;28;19952;-83
2020/12/11 04:53:31;;;;;;;;;;;-0.20;99.90;;;;;;5015009;28;20007;-82
2020/12/11 04:56:06;;;;;;;;;;;-0.10;99.90;;;;;;5016453;28;20031;-82
2020/12/11 04:58:32;;;;;;;;;;;-0.10;99.90;;;;;;5018802;28;19916;-82
2020/12/11 05:01:05;;;;;;;;;;;0.00;99.90;;;;;;5035214;28;19909;-82
2020/12/11 05:03:37;;;;;;;;;;;0.00;99.90;;;;;;5015703;28;19917;-82
2020/12/11 05:06:07;;;;;;;;;;;0.00;99.90;;;;;;5018518;28;19913;-82
2020/12/11 05:08:33;;;;;;;;;;;0.10;99.90;;;;;;5032348;28;20262;-82
2020/12/11 05:10:59;;;;;;;;;;;0.10;99.90;;;;;;5018667;28;19956;-83
2020/12/11 05:13:33;;;;;;;;;;;0.10;99.90;;;;;;5034878;28;19932;-83
2020/12/11 05:16:15;;;;;;;;;;;0.10;99.90;;;;;;5034555;28;19913;-82
2020/12/11 05:18:52;;;;;;;;;;;0.10;99.90;;;;;;5029265;28;19912;-82
2020/12/11 05:21:22;;;;;;;;;;;0.20;99.90;;;;;;5097455;28;20030;-82
2020/12/11 05:23:58;;;;;;;;;;;0.20;99.90;;;;;;5075443;28;19927;-83
2020/12/11 05:26:24;;;;;;;;;;;0.20;99.90;;;;;;5072939;28;19913;-83
2020/12/11 05:28:52;;;;;;;;;;;0.20;99.90;;;;;;5075155;28;20368;-83
2020/12/11 05:31:26;;;;;;;;;;;0.20;99.90;;;;;;5075455;28;19909;-82
2020/12/11 05:34:10;;;;;;;;;;;0.20;99.90;;;;;;5075096;28;19923;-83
2020/12/11 05:36:53;;;;;;;;;;;0.20;99.90;;;;;;5077562;28;20027;-83
2020/12/11 05:39:25;;;;;;;;;;;0.20;99.90;;;;;;5076031;28;20277;-82
2020/12/11 05:41:57;;;;;;;;;;;0.30;99.90;;;;;;5075382;28;19947;-82
2020/12/11 05:44:36;;;;;;;;;;;0.50;99.90;;;;;;5072540;28;19917;-82
2020/12/11 05:47:24;;;;;;;;;;;0.60;99.90;;;;;;5076849;28;19912;-83
2020/12/11 05:49:52;;;;;;;;;;;0.70;99.90;;;;;;5075833;28;19909;-82
2020/12/11 05:52:19;;;;;;;;;;;0.80;99.90;;;;;;5069478;28;19935;-82
2020/12/11 05:54:55;;;;;;;;;;;0.90;99.90;;;;;;5075245;28;19913;-83
2020/12/11 05:57:22;;;;;;;;;;;0.90;99.90;;;;;;5075165;28;19909;-82
2020/12/11 05:59:48;;;;;;;;;;;1.00;99.90;;;;;;5078774;28;19940;-82
2020/12/11 06:02:18;;;;;;;;;;;1.00;99.90;;;;;;5077165;28;19913;-82
2020/12/11 06:04:47;;;;;;;;;;;1.00;99.90;;;;;;5075634;28;19917;-82
2020/12/11 06:07:16;;;;;;;;;;;1.10;99.90;;;;;;5074164;28;20329;-82
2020/12/11 06:09:55;;;;;;;;;;;1.10;99.90;;;;;;5075902;28;19909;-82
2020/12/11 06:12:30;;;;;;;;;;;1.10;99.90;;;;;;5074640;28;20284;-82
2020/12/11 06:15:14;;;;;;;;;;;1.20;99.90;;;;;;5074674;28;19916;-82
2020/12/11 06:17:45;;;;;;;;;;;1.20;99.90;;;;;;5075493;28;20007;-82
2020/12/11 06:20:11;;;;;;;;;;;1.20;99.90;;;;;;5074226;28;20369;-83
2020/12/11 06:22:36;;;;;;;;;;;1.30;99.90;;;;;;5074172;28;19932;-82
2020/12/11 06:25:21;;;;;;;;;;;1.30;99.90;;;;;;5074333;28;19978;-82
2020/12/11 06:27:47;;;;;;;;;;;1.30;99.90;;;;;;5074313;28;19909;-82
2020/12/11 06:30:22;;;;;;;;;;;1.40;99.90;;;;;;5073562;28;19954;-84
2020/12/11 06:32:48;;;;;;;;;;;1.40;99.90;;;;;;5084490;28;19916;-82
2020/12/11 06:35:15;;;;;;;;;;;1.40;99.90;;;;;;5094326;28;19919;-82
2020/12/11 06:37:41;;;;;;;;;;;1.40;99.90;;;;;;5091287;28;19958;-81
2020/12/11 06:40:12;;;;;;;;;;;1.40;99.90;;;;;;5086702;28;19947;-82
2020/12/11 06:42:41;;;;;;;;;;;1.40;99.90;;;;;;5093449;28;19912;-82
2020/12/11 06:45:19;;;;;;;;;;;1.40;99.90;;;;;;5079568;28;19951;-82
2020/12/11 06:47:58;;;;;;;;;;;1.50;99.90;;;;;;5074961;28;19916;-83
2020/12/11 06:50:31;;;;;;;;;;;1.50;99.90;;;;;;5070705;28;19917;-81
2020/12/11 06:52:59;;;;;;;;;;;1.50;99.90;;;;;;5073599;28;19961;-82
2020/12/11 06:55:46;;;;;;;;;;;1.50;99.90;;;;;;5074283;28;20508;-82
2020/12/11 06:58:22;;;;;;;;;;;1.50;99.90;;;;;;5073723;28;19908;-82
2020/12/11 07:01:08;;;;;;;;;;;1.50;99.90;;;;;;5073628;28;19909;-82
2020/12/11 07:03:37;;;;;;;;;;;1.50;99.90;;;;;;5073115;28;20422;-82
2020/12/11 07:06:13;;;;;;;;;;;1.50;99.90;;;;;;5073622;28;19913;-82
2020/12/11 07:08:44;;;;;;;;;;;1.60;99.90;;;;;;5073617;28;19995;-82
2020/12/11 07:11:14;;;;;;;;;;;1.60;99.90;;;;;;5073450;28;20422;-81
2020/12/11 07:13:53;;;;;;;;;;;1.60;99.90;;;;;;5075094;28;19923;-82
2020/12/11 07:16:19;;;;;;;;;;;1.60;99.90;;;;;;5075940;28;19958;-83
2020/12/11 07:18:49;;;;;;;;;;;1.60;99.90;;;;;;5064538;28;22239;-81
2020/12/11 07:21:28;;;;;;;;;;;1.60;99.90;;;;;;5056386;28;19946;-82
2020/12/11 07:23:54;;;;;;;;;;;1.70;99.90;;;;;;5055860;28;19947;-82
2020/12/11 07:26:25;;;;;;;;;;;1.70;99.90;;;;;;5052922;28;19917;-81
2020/12/11 07:29:21;;;;;;;;;;;1.70;99.90;;;;;;5052645;28;19917;-82
2020/12/11 07:31:47;;;;;;;;;;;1.70;99.90;;;;;;5062814;28;19909;-82
2020/12/11 07:34:15;;;;;;;;;;;1.70;99.90;;;;;;5036043;28;20365;-81
2020/12/11 07:37:03;;;;;;;;;;;1.70;99.90;;;;;;5053076;28;19955;-82
2020/12/11 07:39:33;;;;;;;;;;;1.80;99.90;;;;;;5052321;28;20015;-82
2020/12/11 07:42:05;;;;;;;;;;;1.80;99.90;;;;;;5050129;28;19920;-82
2020/12/11 07:44:39;;;;;;;;;;;1.80;99.90;;;;;;5053512;28;19931;-82
2020/12/11 07:47:15;;;;;;;;;;;1.80;99.90;;;;;;5052893;28;19913;-83
2020/12/11 07:49:48;;;;;;;;;;;1.90;99.90;;;;;;5053111;28;20338;-83
2020/12/11 07:52:29;;;;;;;;;;;1.90;99.90;;;;;;5060630;28;20003;-82
2020/12/11 07:55:02;;;;;;;;;;;1.90;99.90;;;;;;5070812;28;19955;-83
2020/12/11 07:57:30;;;;;;;;;;;1.90;99.90;;;;;;5073975;28;19913;-83
2020/12/11 08:00:01;;;;;;;;;;;2.00;99.90;;;;;;5072810;28;19915;-83
2020/12/11 08:02:28;;;;;;;;;;;2.00;99.90;;;;;;5072959;28;20516;-83
2020/12/11 08:04:54;;;;;;;;;;;2.00;99.90;;;;;;5065575;28;19964;-82
2020/12/11 08:07:37;;;;;;;;;;;2.00;99.90;;;;;;5052634;28;19916;-83
2020/12/11 08:10:10;;;;;;;;;;;2.10;99.90;;;;;;5052887;28;20011;-82
2020/12/11 08:12:40;;;;;;;;;;;2.10;99.90;;;;;;5053130;28;19935;-83
2020/12/11 08:15:08;;;;;;;;;;;2.10;99.90;;;;;;5053607;28;19955;-82
2020/12/11 08:17:41;;;;;;;;;;;2.10;99.90;;;;;;5052506;28;19959;-81
2020/12/11 08:20:16;;;;;;;;;;;2.20;99.90;;;;;;5052521;28;19916;-81
2020/12/11 08:22:46;;;;;;;;;;;2.20;99.90;;;;;;5061561;28;20354;-81
2020/12/11 08:25:31;;;;;;;;;;;2.20;99.90;;;;;;5069014;28;20357;-82
2020/12/11 08:28:04;;;;;;;;;;;2.20;99.90;;;;;;5072115;28;19908;-81
2020/12/11 08:30:39;;;;;;;;;;;2.30;99.90;;;;;;5074248;28;20003;-81
2020/12/11 08:33:17;;;;;;;;;;;2.30;99.90;;;;;;5076198;28;19955;-81
2020/12/11 08:35:46;;;;;;;;;;;2.30;99.90;;;;;;5076615;28;19920;-82
2020/12/11 08:38:15;;;;;;;;;;;2.30;99.90;;;;;;5077431;28;19920;-82
2020/12/11 08:40:54;;;;;;;;;;;2.30;99.90;;;;;;5076790;28;19954;-82
2020/12/11 08:43:36;;;;;;;;;;;2.30;99.90;;;;;;5076591;28;19948;-82
2020/12/11 08:51:37;;;;;;;;;;;2.40;99.90;;;;;;5077137;28;19951;-82
2020/12/11 08:54:10;;;;;;;;;;;2.40;99.90;;;;;;5077181;28;20385;-83
2020/12/11 08:56:39;;;;;;;;;;;2.40;99.90;;;;;;5075977;28;19915;-83
2020/12/11 08:59:07;;;;;;;;;;;2.40;99.90;;;;;;5077166;28;19962;-83
2020/12/11 09:01:39;;;;;;;;;;;2.40;99.90;;;;;;5079405;28;19912;-82
2020/12/11 09:04:11;;;;;;;;;;;2.40;99.90;;;;;;5076807;28;20368;-82
2020/12/11 09:06:42;;;;;;;;;;;2.50;99.90;;;;;;5073772;28;19958;-82
2020/12/11 09:09:08;;;;;;;;;;;2.50;99.90;;;;;;5075948;28;19916;-82
2020/12/11 09:11:39;;;;;;;;;;;2.50;99.90;;;;;;5077707;28;20361;-83
2020/12/11 09:14:06;;;;;;;;;;;2.60;99.90;;;;;;5075848;28;19942;-82
2020/12/11 09:16:38;;;;;;;;;;;2.60;99.90;;;;;;5082112;28;19960;-82
2020/12/11 09:19:14;;;;;;;;;;;2.60;99.90;;;;;;5090545;28;19965;-82
2020/12/11 09:21:42;;;;;;;;;;;2.60;99.90;;;;;;5081287;28;19919;-81
2020/12/11 09:24:12;;;;;;;;;;;2.50;99.90;;;;;;5090469;28;19918;-82
2020/12/11 09:26:41;;;;;;;;;;;2.50;99.90;;;;;;5097173;28;19956;-81
2020/12/11 09:29:27;;;;;;;;;;;2.40;99.90;;;;;;5112539;28;19934;-81
2020/12/11 09:31:58;;;;;;;;;;;2.40;99.90;;;;;;5081207;28;19930;-83
2020/12/11 09:34:27;;;;;;;;;;;2.40;99.90;;;;;;5094563;28;20373;-82
2020/12/11 09:37:14;;;;;;;;;;;2.40;99.90;;;;;;5095126;28;20375;-81
2020/12/11 09:39:47;;;;;;;;;;;2.30;99.90;;;;;;5075860;28;19919;-82
2020/12/11 09:50:26;;;;;;;;;;;2.30;99.90;;;;;;5072325;28;19908;-82
2020/12/11 09:55:48;;;;;;;;;;;2.50;99.90;;;;;;5095086;28;19923;-83
2020/12/11 09:58:20;;;;;;;;;;;2.50;99.90;;;;;;5078344;28;20053;-83
2020/12/11 10:00:50;;;;;;;;;;;2.60;99.90;;;;;;5078604;28;19919;-83
2020/12/11 10:03:22;;;;;;;;;;;2.60;99.90;;;;;;5061175;28;20004;-82
2020/12/11 10:05:53;;;;;;;;;;;2.60;99.90;;;;;;5078225;28;19917;-82
2020/12/11 10:08:21;;;;;;;;;;;2.60;99.90;;;;;;5098697;28;19913;-82
2020/12/11 10:10:56;;;;;;;;;;;2.60;99.90;;;;;;5078347;28;19915;-82
2020/12/11 10:13:24;;;;;;;;;;;2.60;99.90;;;;;;5077602;28;19918;-81
2020/12/11 10:15:53;;;;;;;;;;;2.70;99.90;;;;;;5077844;28;19908;-81
2020/12/11 10:18:25;;;;;;;;;;;2.70;99.90;;;;;;5073205;28;20357;-83
2020/12/11 10:20:57;;;;;;;;;;;2.80;99.90;;;;;;5075319;28;19919;-83
2020/12/11 10:23:28;;;;;;;;;;;2.80;99.90;;;;;;5095288;28;20058;-82
2020/12/11 10:25:59;;;;;;;;;;;2.80;99.90;;;;;;5077331;28;20354;-82
2020/12/11 10:28:31;;;;;;;;;;;2.90;99.90;;;;;;5077621;28;19912;-81
2020/12/11 10:30:57;;;;;;;;;;;2.90;99.90;;;;;;5076726;28;20397;-81
2020/12/11 10:33:32;;;;;;;;;;;3.00;99.90;;;;;;5077212;28;20007;-82
2020/12/11 10:36:00;;;;;;;;;;;3.00;99.90;;;;;;5100200;28;19908;-82
2020/12/11 10:38:29;;;;;;;;;;;3.10;99.90;;;;;;5092651;28;19923;-82
2020/12/11 10:41:00;;;;;;;;;;;3.20;99.90;;;;;;5080707;28;19908;-82
2020/12/11 10:43:32;;;;;;;;;;;3.30;99.90;;;;;;5094565;28;20353;-83
2020/12/11 10:46:06;;;;;;;;;;;3.30;99.90;;;;;;5103992;28;19919;-82
2020/12/11 10:48:33;;;;;;;;;;;3.40;99.90;;;;;;5082418;28;20300;-82
2020/12/11 10:51:05;;;;;;;;;;;3.40;99.90;;;;;;5095332;28;20003;-82
2020/12/11 10:53:36;;;;;;;;;;;3.40;99.90;;;;;;5076889;28;19923;-82
2020/12/11 10:56:06;;;;;;;;;;;3.40;99.90;;;;;;5077246;28;19909;-82
2020/12/11 10:58:39;;;;;;;;;;;3.40;99.90;;;;;;5075824;28;19996;-83
2020/12/11 11:01:23;;;;;;;;;;;3.40;99.90;;;;;;5097244;28;19912;-81
2020/12/11 11:03:51;;;;;;;;;;;3.40;99.90;;;;;;5084876;28;19966;-87
2020/12/11 11:06:25;;;;;;;;;;;3.40;99.90;;;;;;5096062;28;19954;-87
2020/12/11 11:11:25;;;;;;;;;;;3.30;99.90;;;;;;5095851;28;19912;-86
2020/12/11 11:16:25;;;;;;;;;;;3.30;99.90;;;;;;5095302;28;19912;-87
2020/12/11 11:18:56;;;;;;;;;;;3.30;99.90;;;;;;5077349;28;19979;-87
2020/12/11 11:26:59;;;;;;;;;;;3.30;99.90;;;;;;5094948;28;19916;-86
2020/12/11 11:29:27;;;;;;;;;;;3.30;99.90;;;;;;5093924;28;19915;-87
2020/12/11 11:31:59;;;;;;;;;;;3.30;99.90;;;;;;5073431;28;19916;-86
2020/12/11 11:34:27;;;;;;;;;;;3.20;99.90;;;;;;5073109;28;20011;-86
2020/12/11 11:36:53;;;;;;;;;;;3.30;99.90;;;;;;5094777;28;19915;-87
2020/12/11 11:39:29;;;;;;;;;;;3.20;99.90;;;;;;5095300;28;19961;-87
2020/12/11 11:41:55;;;;;;;;;;;3.30;99.90;;;;;;5086168;28;19908;-86
2020/12/11 11:44:44;;;;;;;;;;;3.30;99.90;;;;;;5097584;28;20020;-86
2020/12/11 11:47:10;;;;;;;;;;;3.30;99.90;;;;;;5090611;28;19927;-86
2020/12/11 11:49:53;;;;;;;;;;;3.40;99.90;;;;;;5105361;28;19912;-86
2020/12/11 11:55:13;;;;;;;;;;;3.40;99.90;;;;;;5102315;28;19931;-86
2020/12/11 11:57:40;;;;;;;;;;;3.40;99.90;;;;;;5074310;28;19924;-85
2020/12/11 12:00:11;;;;;;;;;;;3.40;99.90;;;;;;5095301;28;20288;-86
2020/12/11 12:02:47;;;;;;;;;;;3.40;99.90;;;;;;5077055;28;19914;-86
2020/12/11 12:05:16;;;;;;;;;;;3.40;99.90;;;;;;5093598;28;19954;-86
2020/12/11 12:07:45;;;;;;;;;;;3.40;99.90;;;;;;5071796;28;19908;-86
2020/12/11 12:10:13;;;;;;;;;;;3.40;99.90;;;;;;5086793;28;19908;-85
2020/12/11 12:12:43;;;;;;;;;;;3.40;99.90;;;;;;5091036;28;19931;-86
2020/12/11 12:15:20;;;;;;;;;;;3.40;99.90;;;;;;5073274;28;19912;-86
2020/12/11 12:18:03;;;;;;;;;;;3.40;99.90;;;;;;5077239;28;20269;-86
2020/12/11 12:20:42;;;;;;;;;;;3.50;99.90;;;;;;5076413;28;20422;-85
2020/12/11 12:31:19;;;;;;;;;;;3.60;99.90;;;;;;5093455;28;19955;-85
2020/12/11 12:37:01;;;;;;;;;;;3.60;99.90;;;;;;5057112;28;19908;-85
2020/12/11 12:42:40;;;;;;;;;;;3.60;99.90;;;;;;5094177;28;19974;-85
2020/12/11 12:45:08;;;;;;;;;;;3.60;99.90;;;;;;5094548;28;19915;-85
2020/12/11 12:47:38;;;;;;;;;;;3.60;99.90;;;;;;5076289;28;20090;-85
2020/12/11 12:50:16;;;;;;;;;;;3.60;99.90;;;;;;5075401;28;20307;-85
2020/12/11 12:52:47;;;;;;;;;;;3.60;99.90;;;;;;5094090;28;19916;-85
2020/12/11 12:55:15;;;;;;;;;;;3.70;99.90;;;;;;5076051;28;19908;-85
2020/12/11 12:57:50;;;;;;;;;;;3.70;99.90;;;;;;5076049;28;19957;-85
2020/12/11 13:03:16;;;;;;;;;;;3.70;99.90;;;;;;5094334;28;20643;-85
2020/12/11 13:05:44;;;;;;;;;;;3.70;99.90;;;;;;5094842;28;19954;-85
2020/12/11 13:08:18;;;;;;;;;;;3.80;99.90;;;;;;5073620;28;20023;-85
2020/12/11 13:10:47;;;;;;;;;;;3.80;99.90;;;;;;5095394;28;19908;-86
2020/12/11 13:13:15;;;;;;;;;;;3.80;99.90;;;;;;5070139;28;20330;-85
2020/12/11 13:15:53;;;;;;;;;;;3.80;99.90;;;;;;5076802;28;19915;-86
2020/12/11 13:18:18;;;;;;;;;;;3.80;99.90;;;;;;5063370;28;19912;-85
2020/12/11 13:20:46;;;;;;;;;;;3.90;99.90;;;;;;5085458;28;19923;-84
2020/12/11 13:28:37;;;;;;;;;;;3.80;99.90;;;;;;5097934;28;20276;-86
2020/12/11 13:31:02;;;;;;;;;;;3.90;99.90;;;;;;5079268;28;19979;-85
2020/12/11 13:33:28;;;;;;;;;;;3.90;99.90;;;;;;5098578;28;19922;-86
2020/12/11 13:35:57;;;;;;;;;;;3.90;99.90;;;;;;5077178;28;20331;-85
2020/12/11 13:38:25;;;;;;;;;;;3.90;99.90;;;;;;5080903;28;19923;-85
2020/12/11 13:41:11;;;;;;;;;;;3.90;99.90;;;;;;5080579;28;19911;-85
2020/12/11 13:43:40;;;;;;;;;;;3.90;99.90;;;;;;5079379;28;19907;-84
2020/12/11 13:46:12;;;;;;;;;;;3.90;99.90;;;;;;5091473;28;20387;-85
2020/12/11 13:48:41;;;;;;;;;;;3.90;99.90;;;;;;5080090;28;19916;-85
2020/12/11 13:51:06;;;;;;;;;;;4.00;99.90;;;;;;5098115;28;19908;-85
2020/12/11 13:53:34;;;;;;;;;;;4.00;99.90;;;;;;5079483;28;20064;-84
2020/12/11 13:56:08;;;;;;;;;;;4.00;99.90;;;;;;5094872;28;19920;-85
2020/12/11 13:58:36;;;;;;;;;;;4.00;99.90;;;;;;5097517;28;19908;-85
2020/12/11 14:01:01;;;;;;;;;;;4.00;99.90;;;;;;5078943;28;19955;-85
2020/12/11 14:03:32;;;;;;;;;;;4.00;99.90;;;;;;5079039;28;19931;-85
2020/12/11 14:05:58;;;;;;;;;;;4.00;99.90;;;;;;5102324;28;19932;-85
2020/12/11 14:08:31;;;;;;;;;;;4.00;99.90;;;;;;5079517;28;19919;-84
2020/12/11 14:11:00;;;;;;;;;;;4.00;99.90;;;;;;5103620;28;19932;-84
2020/12/11 14:13:28;;;;;;;;;;;4.00;99.90;;;;;;5080966;28;19912;-86
2020/12/11 14:16:04;;;;;;;;;;;4.10;99.90;;;;;;5078953;28;19915;-85
2020/12/11 14:18:45;;;;;;;;;;;4.10;99.90;;;;;;5079171;28;19908;-85
2020/12/11 14:21:37;;;;;;;;;;;4.20;99.90;;;;;;5078959;28;19908;-85
2020/12/11 14:24:05;;;;;;;;;;;4.20;99.90;;;;;;5066068;28;19972;-86
2020/12/11 14:26:38;;;;;;;;;;;4.20;99.90;;;;;;5096795;28;20349;-85
2020/12/11 14:29:07;;;;;;;;;;;4.10;99.90;;;;;;5091937;28;19915;-85
2020/12/11 14:31:35;;;;;;;;;;;4.20;99.90;;;;;;5093070;28;20001;-85
2020/12/11 14:34:11;;;;;;;;;;;4.20;99.90;;;;;;5093144;28;19920;-86
2020/12/11 14:36:44;;;;;;;;;;;4.10;99.90;;;;;;5079281;28;19915;-87
2020/12/11 14:39:13;;;;;;;;;;;4.10;99.90;;;;;;5091226;28;20434;-86
2020/12/11 14:41:42;;;;;;;;;;;4.10;99.90;;;;;;5072541;28;19951;-86
2020/12/11 14:44:17;;;;;;;;;;;4.10;99.90;;;;;;5096068;28;19951;-85
2020/12/11 14:46:49;;;;;;;;;;;4.10;99.90;;;;;;5092198;28;19914;-85
2020/12/11 14:49:19;;;;;;;;;;;4.10;99.90;;;;;;5095980;28;19908;-86
2020/12/11 14:51:46;;;;;;;;;;;4.10;99.90;;;;;;5078007;28;19912;-85
2020/12/11 14:54:16;;;;;;;;;;;4.00;99.90;;;;;;5095662;28;20365;-86
2020/12/11 14:56:49;;;;;;;;;;;4.10;99.90;;;;;;5075044;28;19913;-86
2020/12/11 14:59:25;;;;;;;;;;;4.10;99.90;;;;;;5077959;28;20041;-86
2020/12/11 15:02:04;;;;;;;;;;;4.00;99.90;;;;;;5076461;28;19920;-86
2020/12/11 15:04:29;;;;;;;;;;;4.00;99.90;;;;;;5077448;28;19908;-86
2020/12/11 15:07:01;;;;;;;;;;;4.00;99.90;;;;;;5078307;28;19915;-86
2020/12/11 15:09:29;;;;;;;;;;;4.00;99.90;;;;;;5078164;28;19909;-86
2020/12/11 15:11:59;;;;;;;;;;;4.00;99.90;;;;;;5089392;28;19915;-86
2020/12/11 15:14:27;;;;;;;;;;;4.00;99.90;;;;;;5096719;28;19922;-86
2020/12/11 15:16:55;;;;;;;;;;;4.00;99.90;;;;;;5077525;28;19954;-86
2020/12/11 15:19:23;;;;;;;;;;;3.90;99.90;;;;;;5070754;28;19908;-86
2020/12/11 15:21:57;;;;;;;;;;;3.90;99.90;;;;;;5095251;28;19912;-86
2020/12/11 15:24:23;;;;;;;;;;;4.00;99.90;;;;;;5073023;28;20022;-85
2020/12/11 15:26:58;;;;;;;;;;;3.90;99.90;;;;;;5073221;28;20003;-86
2020/12/11 15:29:37;;;;;;;;;;;4.00;99.90;;;;;;5075102;28;19914;-85
2020/12/11 15:32:18;;;;;;;;;;;4.00;99.90;;;;;;5049594;28;20011;-85
2020/12/11 15:34:50;;;;;;;;;;;4.00;99.90;;;;;;5033607;28;20366;-85
2020/12/11 15:37:15;;;;;;;;;;;3.90;99.90;;;;;;5053605;28;20000;-85
2020/12/11 15:39:41;;;;;;;;;;;4.00;99.90;;;;;;5036025;28;20496;-85
2020/12/11 15:42:07;;;;;;;;;;;4.00;99.90;;;;;;5033371;28;20480;-85
2020/12/11 15:44:37;;;;;;;;;;;3.90;99.90;;;;;;5033144;28;20408;-85